Malik Fady Ibraham, officer (EVP Research of CYTK - Past Performance as of 11/20/19. Total 43 Records. Link to Thomson Financial
Buy(P) /
Sell(S)
P/S date Filed Date Company Symbol Insider Relationship Share Amt. Unit Price Total Proceeds Shares Owned Return(1m) Details
S 2019-11-07 2019-11-08 17:08:54.0 CYTOKINETICS INC CYTK Malik Fady Ibraham officer (EVP Research & Development) 1,500 $9.98 $14,970.00 122,850 view
S 2019-10-03 2019-10-04 17:14:36.0 CYTOKINETICS INC CYTK Malik Fady Ibraham officer (EVP Research & Development) 1,500 $11.22 $16,830.00 122,067 view
S 2019-09-05 2019-09-06 16:49:30.0 CYTOKINETICS INC CYTK Malik Fady Ibraham officer (EVP Research & Development) 1,500 $13.69 $20,531.20 123,567 view
S 2019-08-08 2019-08-09 17:07:51.0 CYTOKINETICS INC CYTK Malik Fady Ibraham officer (EVP Research & Development) 1,500 $13.52 $20,280.00 125,067 view
S 2019-07-11 2019-07-12 19:41:57.0 CYTOKINETICS INC CYTK Malik Fady Ibraham officer (EVP Research & Development) 1,500 $11.26 $16,890.00 126,567 view
S 2019-06-06 2019-06-07 17:38:08.0 CYTOKINETICS INC CYTK Malik Fady Ibraham officer (EVP Research & Development) 1,500 $10.31 $15,462.80 128,067 view
S 2019-05-02 2019-05-03 17:35:48.0 CYTOKINETICS INC CYTK Malik Fady Ibraham officer (EVP Research & Development) 1,500 $8.29 $12,429.80 129,567 view
S 2019-04-04 2019-04-05 19:11:58.0 CYTOKINETICS INC CYTK Malik Fady Ibraham officer (EVP Research & Development) 1,500 $8.31 $12,465.00 131,067 view
S 2019-03-07 2019-03-08 16:25:50.0 CYTOKINETICS INC CYTK Malik Fady Ibraham officer (EVP Research & Development) 1,500 $5.98 $8,970.00 132,567 view
S 2019-02-07 2019-02-08 16:29:29.0 CYTOKINETICS INC CYTK Malik Fady Ibraham officer (EVP Research & Development) 1,500 $7.28 $10,920.00 84,067 view
S 2019-01-10 2019-01-11 19:01:21.0 CYTOKINETICS INC CYTK Malik Fady Ibraham officer (EVP Research & Development) 1,500 $7.31 $10,965.00 85,567 view
S 2018-12-06 2018-12-07 16:57:45.0 CYTOKINETICS INC CYTK Malik Fady Ibraham officer (EVP Research & Development) 1,500 $7.38 $11,070.00 87,067 view
S 2018-11-01 2018-11-02 17:49:03.0 CYTOKINETICS INC CYTK Malik Fady Ibraham officer (EVP Research & Development) 1,500 $6.68 $10,020.00 88,567 view
S 2018-10-04 2018-10-05 11:37:41.0 CYTOKINETICS INC CYTK Malik Fady Ibraham officer (EVP Research & Development) 1,500 $9.14 $13,710.00 90,067 view
S 2018-09-06 2018-09-07 16:14:04.0 CYTOKINETICS INC CYTK Malik Fady Ibraham officer (EVP Research & Development) 1,500 $8.00 $12,000.00 91,567 view
S 2018-08-02 2018-08-03 17:16:08.0 CYTOKINETICS INC CYTK Malik Fady Ibraham officer (EVP Research & Development) 1,500 $6.85 $10,275.00 93,067 view
S 2018-07-05 2018-07-06 16:34:46.0 CYTOKINETICS INC CYTK Malik Fady Ibraham officer (EVP Research & Development) 1,500 $9.05 $13,575.00 94,567 view
S 2018-06-07 2018-06-07 20:15:57.0 CYTOKINETICS INC CYTK Malik Fady Ibraham officer (EVP Research & Development) 3,000 $8.95 $26,850.00 96,067 view
S 2017-11-01 2017-11-03 20:27:43.0 CYTOKINETICS INC CYTK Malik Fady Ibraham officer (EVP Research & Development) 900 $13.65 $12,285.00 47,534 view
S 2017-11-01 2017-11-03 20:27:43.0 CYTOKINETICS INC CYTK Malik Fady Ibraham officer (EVP Research & Development) 843 $13.80 $11,633.40 46,191 view
S 2017-11-01 2017-11-03 20:27:43.0 CYTOKINETICS INC CYTK Malik Fady Ibraham officer (EVP Research & Development) 100 $13.80 $1,380.00 47,034 view
S 2017-11-01 2017-11-03 20:27:43.0 CYTOKINETICS INC CYTK Malik Fady Ibraham officer (EVP Research & Development) 400 $13.68 $5,470.00 47,134 view
S 2017-11-01 2017-11-03 20:27:43.0 CYTOKINETICS INC CYTK Malik Fady Ibraham officer (EVP Research & Development) 600 $13.60 $8,160.00 48,434 view
S 2017-11-01 2017-11-03 20:27:43.0 CYTOKINETICS INC CYTK Malik Fady Ibraham officer (EVP Research & Development) 178 $13.05 $2,322.90 47,362 view
S 2017-11-01 2017-11-03 20:27:43.0 CYTOKINETICS INC CYTK Malik Fady Ibraham officer (EVP Research & Development) 800 $13.10 $10,480.00 49,201 view
S 2017-11-01 2017-11-03 20:27:43.0 CYTOKINETICS INC CYTK Malik Fady Ibraham officer (EVP Research & Development) 300 $13.12 $3,937.50 49,595 view
S 2017-11-01 2017-11-03 20:27:43.0 CYTOKINETICS INC CYTK Malik Fady Ibraham officer (EVP Research & Development) 1,300 $13.15 $17,095.00 50,934 view
S 2017-11-01 2017-11-03 20:27:43.0 CYTOKINETICS INC CYTK Malik Fady Ibraham officer (EVP Research & Development) 100 $13.18 $1,317.50 50,834 view
S 2017-11-01 2017-11-03 20:27:43.0 CYTOKINETICS INC CYTK Malik Fady Ibraham officer (EVP Research & Development) 300 $13.20 $3,960.00 50,534 view
S 2017-11-01 2017-11-03 20:27:43.0 CYTOKINETICS INC CYTK Malik Fady Ibraham officer (EVP Research & Development) 400 $13.23 $5,290.00 50,134 view
S 2017-11-01 2017-11-03 20:27:43.0 CYTOKINETICS INC CYTK Malik Fady Ibraham officer (EVP Research & Development) 200 $13.25 $2,650.00 49,934 view
S 2017-11-01 2017-11-03 20:27:43.0 CYTOKINETICS INC CYTK Malik Fady Ibraham officer (EVP Research & Development) 200 $13.30 $2,660.00 49,734 view
S 2017-11-01 2017-11-03 20:27:43.0 CYTOKINETICS INC CYTK Malik Fady Ibraham officer (EVP Research & Development) 400 $13.35 $5,340.00 49,334 view
S 2017-11-01 2017-11-03 20:27:43.0 CYTOKINETICS INC CYTK Malik Fady Ibraham officer (EVP Research & Development) 300 $13.55 $4,065.00 49,034 view
S 2016-12-29 2016-12-30 16:28:35.0 CYTOKINETICS INC CYTK Malik Fady Ibraham officer (EVP Research & Development) 1,326 $12.52 $16,600.20 35 N/A view
S 2016-12-28 2016-12-30 16:28:35.0 CYTOKINETICS INC CYTK Malik Fady Ibraham officer (EVP Research & Development) 1,800 $12.32 $22,182.50 1,361 N/A view
S 2016-12-28 2016-12-30 16:28:35.0 CYTOKINETICS INC CYTK Malik Fady Ibraham officer (EVP Research & Development) 200 $12.31 $2,461.00 3,161 N/A view
S 2016-12-28 2016-12-30 16:28:35.0 CYTOKINETICS INC CYTK Malik Fady Ibraham officer (EVP Research & Development) 2,307 $12.31 $28,399.20 3,361 N/A view
S 2014-12-30 2014-12-31 17:19:36.0 CYTOKINETICS INC CYTK Malik Fady Ibraham officer (SVP Research & Development) 15,905 $6.73 $107,041.00 9,086 -5.35% view
S 2014-12-30 2014-12-31 17:19:36.0 CYTOKINETICS INC CYTK Malik Fady Ibraham officer (SVP Research & Development) 500 $6.76 $3,380.00 3,361 -4.88% view
S 2014-12-30 2014-12-31 17:19:36.0 CYTOKINETICS INC CYTK Malik Fady Ibraham officer (SVP Research & Development) 3,285 $6.75 $22,174.10 3,861 -5.04% view
S 2014-12-30 2014-12-31 17:19:36.0 CYTOKINETICS INC CYTK Malik Fady Ibraham officer (SVP Research & Development) 611 $6.75 $4,124.25 7,146 -5.04% view
S 2014-12-30 2014-12-31 17:19:36.0 CYTOKINETICS INC CYTK Malik Fady Ibraham officer (SVP Research & Development) 1,329 $6.74 $8,957.46 7,757 -5.19% view
* Filed by insider as open market transaction, but marked as private transaction by insidercow's proprietary method